createdAt,value
2018-06-20T00:00:43.870Z,0.00
2018-06-20T00:01:43.899Z,0.00
2018-06-20T00:02:43.927Z,0.00
2018-06-20T00:03:43.952Z,0.00
2018-06-20T00:04:43.979Z,0.00
2018-06-20T00:05:43.998Z,0.00
2018-06-20T00:06:44.028Z,0.00
2018-06-20T00:07:44.052Z,0.00
2018-06-20T00:08:44.079Z,0.00
2018-06-20T00:09:44.098Z,0.00
2018-06-20T00:10:44.128Z,0.00
2018-06-20T00:11:44.158Z,0.00
2018-06-20T00:12:44.182Z,0.00
2018-06-20T00:13:44.202Z,0.00
2018-06-20T00:14:44.227Z,0.00
2018-06-20T00:15:44.254Z,0.00
2018-06-20T00:16:44.276Z,0.00
2018-06-20T00:17:44.303Z,0.00
2018-06-20T00:18:44.328Z,0.00
2018-06-20T00:19:44.351Z,0.00
2018-06-20T00:20:44.389Z,0.00
2018-06-20T00:21:44.404Z,0.00
2018-06-20T00:22:44.427Z,0.00
2018-06-20T00:23:44.457Z,0.00
2018-06-20T00:24:44.477Z,0.00
2018-06-20T00:25:44.507Z,0.00
2018-06-20T00:26:44.531Z,0.00
2018-06-20T00:27:44.557Z,0.00
2018-06-20T00:28:44.580Z,0.00
2018-06-20T00:29:44.606Z,0.00
2018-06-20T00:30:44.635Z,0.00
2018-06-20T00:31:44.668Z,0.00
2018-06-20T00:32:44.686Z,0.00
2018-06-20T00:33:44.710Z,0.00
2018-06-20T00:34:44.743Z,0.00
2018-06-20T00:35:44.761Z,0.00
2018-06-20T00:36:44.787Z,0.00
2018-06-20T00:37:44.813Z,0.00
2018-06-20T00:38:44.842Z,0.00
2018-06-20T00:39:44.860Z,0.00
2018-06-20T00:40:44.890Z,0.00
2018-06-20T00:41:44.911Z,0.00
2018-06-20T00:42:44.937Z,0.00
2018-06-20T00:43:44.975Z,0.00
2018-06-20T00:44:44.991Z,0.00
2018-06-20T00:45:45.018Z,0.00
2018-06-20T00:46:45.040Z,0.00
2018-06-20T00:47:45.066Z,0.00
2018-06-20T00:48:45.086Z,0.00
2018-06-20T00:49:45.114Z,0.00
2018-06-20T00:50:45.140Z,0.00
2018-06-20T00:51:45.162Z,0.00
2018-06-20T00:52:45.187Z,0.00
2018-06-20T00:53:45.219Z,0.00
2018-06-20T00:54:45.248Z,0.00
2018-06-20T00:55:45.268Z,0.00
2018-06-20T00:56:45.295Z,0.00
2018-06-20T00:57:45.318Z,0.00
2018-06-20T00:58:45.341Z,0.00
2018-06-20T00:59:45.369Z,0.00
2018-06-20T01:00:45.390Z,0.00
2018-06-20T01:01:45.416Z,0.00
2018-06-20T01:02:45.445Z,0.00
2018-06-20T01:03:45.473Z,0.00
2018-06-20T01:04:45.489Z,0.00
2018-06-20T01:05:45.521Z,0.00
2018-06-20T01:06:45.543Z,0.00
2018-06-20T01:07:45.569Z,0.00
2018-06-20T01:08:45.599Z,0.00
2018-06-20T01:09:45.623Z,0.00
2018-06-20T01:10:45.646Z,0.00
2018-06-20T01:11:45.719Z,0.00
2018-06-20T01:12:45.699Z,0.00
2018-06-20T01:13:45.724Z,0.00
2018-06-20T01:14:45.749Z,0.00
2018-06-20T01:15:45.771Z,0.00
2018-06-20T01:16:45.796Z,0.00
2018-06-20T01:17:45.825Z,0.00
2018-06-20T01:18:45.849Z,0.00
2018-06-20T01:19:45.879Z,0.00
2018-06-20T01:20:45.901Z,0.00
2018-06-20T01:21:45.923Z,0.00
2018-06-20T01:22:45.950Z,0.00
2018-06-20T01:23:45.974Z,0.00
2018-06-20T01:24:46.004Z,0.00
2018-06-20T01:25:46.039Z,0.00
2018-06-20T01:26:46.056Z,0.00
2018-06-20T01:27:46.078Z,0.00
2018-06-20T01:28:46.099Z,0.00
2018-06-20T01:29:46.125Z,0.00
2018-06-20T01:30:46.149Z,0.00
2018-06-20T01:31:46.182Z,0.00
2018-06-20T01:32:46.199Z,0.00
2018-06-20T01:33:46.236Z,0.00
2018-06-20T01:34:46.255Z,0.00
2018-06-20T01:35:46.278Z,0.00
2018-06-20T01:36:46.305Z,0.00
2018-06-20T01:37:46.329Z,0.00
2018-06-20T01:38:46.356Z,0.00
2018-06-20T01:39:46.382Z,0.00
2018-06-20T01:40:46.404Z,0.00
2018-06-20T01:41:46.430Z,0.00
2018-06-20T01:42:46.454Z,0.00
2018-06-20T01:43:46.478Z,0.00
2018-06-20T01:44:46.506Z,0.00
2018-06-20T01:45:46.529Z,0.00
2018-06-20T01:46:46.559Z,0.00
2018-06-20T01:47:46.582Z,0.00
2018-06-20T01:48:46.604Z,0.00
2018-06-20T01:49:46.638Z,0.00
2018-06-20T01:50:46.653Z,0.00
2018-06-20T01:51:46.687Z,0.00
2018-06-20T01:52:46.708Z,0.00
2018-06-20T01:53:46.727Z,0.00
2018-06-20T01:54:46.758Z,0.00
2018-06-20T01:55:46.835Z,0.00
2018-06-20T01:56:46.812Z,0.00
2018-06-20T01:57:46.838Z,0.00
2018-06-20T01:58:46.857Z,0.00
2018-06-20T01:59:46.883Z,0.00
2018-06-20T02:00:46.909Z,0.00
2018-06-20T02:01:46.932Z,0.00
2018-06-20T02:02:46.958Z,0.00
2018-06-20T02:03:46.983Z,0.00
2018-06-20T02:04:47.008Z,0.00
2018-06-20T02:05:47.038Z,0.00
2018-06-20T02:06:47.057Z,0.00
2018-06-20T02:07:47.082Z,0.00
2018-06-20T02:08:47.111Z,0.00
2018-06-20T02:09:47.137Z,0.00
2018-06-20T02:10:47.159Z,0.00
2018-06-20T02:11:47.187Z,0.00
2018-06-20T02:12:47.216Z,0.00
2018-06-20T02:13:47.233Z,0.00
2018-06-20T02:14:47.263Z,0.00
2018-06-20T02:15:47.287Z,0.00
2018-06-20T02:16:47.313Z,0.00
2018-06-20T02:17:47.340Z,0.00
2018-06-20T02:18:47.363Z,0.00
2018-06-20T02:19:47.381Z,0.00
2018-06-20T02:20:47.413Z,0.00
2018-06-20T02:21:47.442Z,0.00
2018-06-20T02:22:47.462Z,0.00
2018-06-20T02:23:47.486Z,0.00
2018-06-20T02:24:47.522Z,0.00
2018-06-20T02:25:47.536Z,0.00
2018-06-20T02:26:47.574Z,0.00
2018-06-20T02:27:47.587Z,0.00
2018-06-20T02:28:47.613Z,0.00
2018-06-20T02:29:47.639Z,0.00
2018-06-20T02:30:47.664Z,0.00
2018-06-20T02:31:47.693Z,0.00
2018-06-20T02:32:47.715Z,0.00
2018-06-20T02:33:47.743Z,0.00
2018-06-20T02:34:47.764Z,0.00
2018-06-20T02:35:47.789Z,0.00
2018-06-20T02:36:47.849Z,0.00
2018-06-20T02:37:47.835Z,5.63
2018-06-20T02:38:47.865Z,5.63
2018-06-20T02:39:47.887Z,5.63
2018-06-20T02:40:47.922Z,5.63
2018-06-20T02:41:47.936Z,5.63
2018-06-20T02:42:47.965Z,5.63
2018-06-20T02:43:47.991Z,5.63
2018-06-20T02:44:48.012Z,5.63
2018-06-20T02:45:48.041Z,5.63
2018-06-20T02:46:48.066Z,11.25
2018-06-20T02:47:48.086Z,11.25
2018-06-20T02:48:48.125Z,11.25
2018-06-20T02:49:48.143Z,11.25
2018-06-20T02:50:48.162Z,11.25
2018-06-20T02:51:48.186Z,16.88
2018-06-20T02:52:48.276Z,16.88
2018-06-20T02:53:48.242Z,16.88
2018-06-20T02:54:48.261Z,16.88
2018-06-20T02:55:48.291Z,16.88
2018-06-20T02:56:48.313Z,22.50
2018-06-20T02:57:48.334Z,22.50
2018-06-20T02:58:48.370Z,22.50
2018-06-20T02:59:48.394Z,22.50
2018-06-20T03:00:48.416Z,28.13
2018-06-20T03:01:48.439Z,28.13
2018-06-20T03:02:48.465Z,28.13
2018-06-20T03:03:48.488Z,28.13
2018-06-20T03:04:48.512Z,33.75
2018-06-20T03:05:48.535Z,33.75
2018-06-20T03:06:48.562Z,33.75
2018-06-20T03:07:48.594Z,33.75
2018-06-20T03:08:48.615Z,39.38
2018-06-20T03:09:48.637Z,39.38
2018-06-20T03:10:48.669Z,39.38
2018-06-20T03:11:48.684Z,45.00
2018-06-20T03:12:48.722Z,50.63
2018-06-20T03:13:48.751Z,56.25
2018-06-20T03:14:48.759Z,61.88
2018-06-20T03:15:48.789Z,56.25
2018-06-20T03:16:48.820Z,50.63
2018-06-20T03:17:48.835Z,50.63
2018-06-20T03:18:48.863Z,56.25
2018-06-20T03:19:48.885Z,56.25
2018-06-20T03:20:48.913Z,56.25
2018-06-20T03:21:48.940Z,56.25
2018-06-20T03:22:48.964Z,61.88
2018-06-20T03:23:48.984Z,61.88
2018-06-20T03:24:49.014Z,61.88
2018-06-20T03:25:49.040Z,67.50
2018-06-20T03:26:49.064Z,67.50
2018-06-20T03:27:49.089Z,67.50
2018-06-20T03:28:49.111Z,67.50
2018-06-20T03:29:49.132Z,73.13
2018-06-20T03:30:49.163Z,73.13
2018-06-20T03:31:49.199Z,73.13
2018-06-20T03:32:49.210Z,78.75
2018-06-20T03:33:49.236Z,78.75
2018-06-20T03:34:49.262Z,78.75
2018-06-20T03:35:49.288Z,84.38
2018-06-20T03:36:49.308Z,84.38
2018-06-20T03:37:49.344Z,84.38
2018-06-20T03:38:49.359Z,84.38
2018-06-20T03:39:49.393Z,90.00
2018-06-20T03:40:49.408Z,90.00
2018-06-20T03:41:49.433Z,90.00
2018-06-20T03:42:49.462Z,90.00
2018-06-20T03:43:49.487Z,95.63
2018-06-20T03:44:49.517Z,95.63
2018-06-20T03:45:49.533Z,95.63
2018-06-20T03:46:49.593Z,95.63
2018-06-20T03:47:49.587Z,101.25
2018-06-20T03:48:49.619Z,101.25
2018-06-20T03:49:49.633Z,101.25
2018-06-20T03:50:49.659Z,101.25
2018-06-20T03:51:49.691Z,106.88
2018-06-20T03:52:49.709Z,106.88
2018-06-20T03:53:49.739Z,106.88
2018-06-20T03:54:49.759Z,106.88
2018-06-20T03:55:49.785Z,112.50
2018-06-20T03:56:49.811Z,112.50
2018-06-20T03:57:49.837Z,112.50
2018-06-20T03:58:49.858Z,112.50
2018-06-20T03:59:49.892Z,112.50
2018-06-20T04:00:49.908Z,118.13
2018-06-20T04:01:49.932Z,118.13
2018-06-20T04:02:49.957Z,118.13
2018-06-20T04:03:49.983Z,118.13
2018-06-20T04:04:50.012Z,123.75
2018-06-20T04:05:50.038Z,123.75
2018-06-20T04:06:50.060Z,123.75
2018-06-20T04:07:50.082Z,123.75
2018-06-20T04:08:50.107Z,123.75
2018-06-20T04:09:50.133Z,129.38
2018-06-20T04:10:50.166Z,129.38
2018-06-20T04:11:50.192Z,129.38
2018-06-20T04:12:50.274Z,129.38
2018-06-20T04:13:50.234Z,129.38
2018-06-20T04:14:50.261Z,135.00
2018-06-20T04:15:50.293Z,135.00
2018-06-20T04:16:50.310Z,135.00
2018-06-20T04:17:50.334Z,135.00
2018-06-20T04:18:50.357Z,135.00
2018-06-20T04:19:50.381Z,135.00
2018-06-20T04:20:50.405Z,140.63
2018-06-20T04:21:50.432Z,140.63
2018-06-20T04:22:50.458Z,140.63
2018-06-20T04:23:50.486Z,140.63
2018-06-20T04:24:50.514Z,140.63
2018-06-20T04:25:50.541Z,140.63
2018-06-20T04:26:50.565Z,140.63
2018-06-20T04:27:50.586Z,140.63
2018-06-20T04:28:50.616Z,135.00
2018-06-20T04:29:50.635Z,140.63
2018-06-20T04:30:50.661Z,140.63
2018-06-20T04:31:50.682Z,140.63
2018-06-20T04:32:50.720Z,140.63
2018-06-20T04:33:50.740Z,146.25
2018-06-20T04:34:50.764Z,151.88
2018-06-20T04:35:50.785Z,151.88
2018-06-20T04:36:50.810Z,151.88
2018-06-20T04:37:50.836Z,151.88
2018-06-20T04:38:50.860Z,151.88
2018-06-20T04:39:50.890Z,157.50
2018-06-20T04:40:50.912Z,157.50
2018-06-20T04:41:50.936Z,157.50
2018-06-20T04:42:50.960Z,157.50
2018-06-20T04:43:50.985Z,157.50
2018-06-20T04:44:51.008Z,157.50
2018-06-20T04:45:51.039Z,163.13
2018-06-20T04:46:51.063Z,163.13
2018-06-20T04:47:51.093Z,163.13
2018-06-20T04:48:51.112Z,163.13
2018-06-20T04:49:51.139Z,163.13
2018-06-20T04:50:51.167Z,163.13
2018-06-20T04:51:51.189Z,163.13
2018-06-20T04:52:51.214Z,163.13
2018-06-20T04:53:51.240Z,168.75
2018-06-20T04:54:51.265Z,168.75
2018-06-20T04:55:51.292Z,168.75
2018-06-20T04:56:51.317Z,168.75
2018-06-20T04:57:51.338Z,168.75
2018-06-20T04:58:51.367Z,168.75
2018-06-20T04:59:51.390Z,168.75
2018-06-20T05:00:51.419Z,174.38
2018-06-20T05:01:54.065Z,174.38
2018-06-20T05:02:51.468Z,174.38
2018-06-20T05:03:51.499Z,174.38
2018-06-20T05:04:51.518Z,174.38
2018-06-20T05:05:51.547Z,180.00
2018-06-20T05:06:51.578Z,180.00
2018-06-20T05:07:51.590Z,180.00
2018-06-20T05:08:51.619Z,180.00
2018-06-20T05:09:51.644Z,180.00
2018-06-20T05:10:51.674Z,185.63
2018-06-20T05:11:51.706Z,185.63
2018-06-20T05:12:51.721Z,185.63
2018-06-20T05:13:51.744Z,185.63
2018-06-20T05:14:51.768Z,191.25
2018-06-20T05:15:51.795Z,191.25
2018-06-20T05:16:51.828Z,191.25
2018-06-20T05:17:51.848Z,191.25
2018-06-20T05:18:51.877Z,191.25
2018-06-20T05:19:51.903Z,191.25
2018-06-20T05:20:51.928Z,191.25
2018-06-20T05:21:51.949Z,191.25
2018-06-20T05:22:51.974Z,196.88
2018-06-20T05:23:51.998Z,196.88
2018-06-20T05:24:52.024Z,196.88
2018-06-20T05:25:52.061Z,196.88
2018-06-20T05:26:52.075Z,191.25
2018-06-20T05:27:52.104Z,196.88
2018-06-20T05:28:52.128Z,202.50
2018-06-20T05:29:52.154Z,196.88
2018-06-20T05:30:52.178Z,196.88
2018-06-20T05:31:52.204Z,196.88
2018-06-20T05:32:52.293Z,196.88
2018-06-20T05:33:52.283Z,202.50
2018-06-20T05:34:52.278Z,202.50
2018-06-20T05:35:52.307Z,202.50
2018-06-20T05:36:52.335Z,202.50
2018-06-20T05:37:52.361Z,202.50
2018-06-20T05:38:52.384Z,202.50
2018-06-20T05:39:52.410Z,202.50
2018-06-20T05:40:52.439Z,208.13
2018-06-20T05:41:52.458Z,208.13
2018-06-20T05:42:52.491Z,208.13
2018-06-20T05:43:52.515Z,208.13
2018-06-20T05:44:52.544Z,208.13
2018-06-20T05:45:52.567Z,208.13
2018-06-20T05:46:52.589Z,213.75
2018-06-20T05:47:52.613Z,213.75
2018-06-20T05:48:52.637Z,213.75
2018-06-20T05:49:52.665Z,213.75
2018-06-20T05:50:52.688Z,213.75
2018-06-20T05:51:52.718Z,213.75
2018-06-20T05:52:52.743Z,219.38
2018-06-20T05:53:52.771Z,219.38
2018-06-20T05:54:52.815Z,219.38
2018-06-20T05:55:52.820Z,225.00
2018-06-20T05:56:52.844Z,225.00
2018-06-20T05:57:52.875Z,225.00
2018-06-20T05:58:52.896Z,230.63
2018-06-20T05:59:52.923Z,230.63
2018-06-20T06:00:52.949Z,230.63
2018-06-20T06:01:52.971Z,236.25
2018-06-20T06:02:53.004Z,236.25
2018-06-20T06:03:53.026Z,236.25
2018-06-20T06:04:53.060Z,241.88
2018-06-20T06:05:53.075Z,241.88
2018-06-20T06:06:53.101Z,247.50
2018-06-20T06:07:53.129Z,247.50
2018-06-20T06:08:53.151Z,247.50
2018-06-20T06:09:53.182Z,253.13
2018-06-20T06:10:53.206Z,264.38
2018-06-20T06:11:53.234Z,292.50
2018-06-20T06:12:53.258Z,331.88
2018-06-20T06:13:53.280Z,360.00
2018-06-20T06:14:53.314Z,354.38
2018-06-20T06:15:53.340Z,348.75
2018-06-20T06:16:53.412Z,348.75
2018-06-20T06:17:53.392Z,393.75
2018-06-20T06:18:53.415Z,427.50
2018-06-20T06:19:53.440Z,427.50
2018-06-20T06:20:53.469Z,427.50
2018-06-20T06:21:53.490Z,438.75
2018-06-20T06:22:53.514Z,410.63
2018-06-20T06:23:53.548Z,438.75
2018-06-20T06:24:53.572Z,427.50
2018-06-20T06:25:53.596Z,427.50
2018-06-20T06:26:53.628Z,433.13
2018-06-20T06:27:53.649Z,455.63
2018-06-20T06:28:53.678Z,410.63
2018-06-20T06:29:53.706Z,360.00
2018-06-20T06:30:53.726Z,331.88
2018-06-20T06:31:53.757Z,360.00
2018-06-20T06:32:53.780Z,354.38
2018-06-20T06:33:53.821Z,320.63
2018-06-20T06:34:53.834Z,292.50
2018-06-20T06:35:53.865Z,309.38
2018-06-20T06:36:53.892Z,337.50
2018-06-20T06:37:53.917Z,365.63
2018-06-20T06:38:53.940Z,410.63
2018-06-20T06:39:53.973Z,450.00
2018-06-20T06:40:53.995Z,433.13
2018-06-20T06:41:54.024Z,495.00
2018-06-20T06:42:54.051Z,472.50
2018-06-20T06:43:54.119Z,450.00
2018-06-20T06:44:54.104Z,489.38
2018-06-20T06:45:54.133Z,528.75
2018-06-20T06:46:54.157Z,495.00
2018-06-20T06:47:54.179Z,450.00
2018-06-20T06:48:54.218Z,511.88
2018-06-20T06:49:54.283Z,511.88
2018-06-20T06:50:54.262Z,523.13
2018-06-20T06:51:54.293Z,500.63
2018-06-20T06:52:54.317Z,455.63
2018-06-20T06:53:54.342Z,410.63
2018-06-20T06:54:54.369Z,438.75
2018-06-20T06:55:54.412Z,427.50
2018-06-20T06:56:54.424Z,483.75
2018-06-20T06:57:54.450Z,489.38
2018-06-20T06:58:54.477Z,523.13
2018-06-20T06:59:54.503Z,511.88
2018-06-20T07:00:54.530Z,545.63
2018-06-20T07:01:54.562Z,466.88
2018-06-20T07:02:54.586Z,495.00
2018-06-20T07:03:54.610Z,433.13
2018-06-20T07:04:54.639Z,472.50
2018-06-20T07:05:54.664Z,500.63
2018-06-20T07:06:54.690Z,466.88
2018-06-20T07:07:54.927Z,495.00
2018-06-20T07:08:54.750Z,495.00
2018-06-20T07:09:54.773Z,495.00
2018-06-20T07:10:54.803Z,568.13
2018-06-20T07:11:54.824Z,562.50
2018-06-20T07:12:54.861Z,455.63
2018-06-20T07:13:54.885Z,455.63
2018-06-20T07:14:54.911Z,427.50
2018-06-20T07:15:54.942Z,478.13
2018-06-20T07:16:54.968Z,455.63
2018-06-20T07:17:55.013Z,472.50
2018-06-20T07:18:55.024Z,365.63
2018-06-20T07:19:55.042Z,326.25
2018-06-20T07:20:55.071Z,360.00
2018-06-20T07:21:55.100Z,461.25
2018-06-20T07:22:55.124Z,461.25
2018-06-20T07:23:55.155Z,376.88
2018-06-20T07:24:55.185Z,371.25
2018-06-20T07:25:55.208Z,360.00
2018-06-20T07:26:55.233Z,393.75
2018-06-20T07:27:55.262Z,360.00
2018-06-20T07:28:55.284Z,382.50
2018-06-20T07:29:55.386Z,399.38
2018-06-20T07:30:55.343Z,433.13
2018-06-20T07:31:55.365Z,365.63
2018-06-20T07:32:55.394Z,410.63
2018-06-20T07:33:55.417Z,438.75
2018-06-20T07:34:55.445Z,438.75
2018-06-20T07:35:55.653Z,410.63
2018-06-20T07:36:55.500Z,427.50
2018-06-20T07:37:55.532Z,410.63
2018-06-20T07:38:55.553Z,433.13
2018-06-20T07:39:55.582Z,466.88
2018-06-20T07:40:55.608Z,528.75
2018-06-20T07:41:55.632Z,506.25
2018-06-20T07:42:55.668Z,438.75
2018-06-20T07:43:55.693Z,483.75
2018-06-20T07:44:55.714Z,472.50
2018-06-20T07:45:55.742Z,528.75
2018-06-20T07:46:55.771Z,540.00
2018-06-20T07:47:55.845Z,534.38
2018-06-20T07:48:55.823Z,489.38
2018-06-20T07:49:55.849Z,472.50
2018-06-20T07:50:55.887Z,500.63
2018-06-20T07:51:55.911Z,540.00
2018-06-20T07:52:55.934Z,607.50
2018-06-20T07:53:55.961Z,652.50
2018-06-20T07:54:55.994Z,607.50
2018-06-20T07:55:56.017Z,540.00
2018-06-20T07:56:56.036Z,540.00
2018-06-20T07:57:56.069Z,573.75
2018-06-20T07:58:56.091Z,641.25
2018-06-20T07:59:56.122Z,675.00
2018-06-20T08:00:56.279Z,731.25
2018-06-20T08:01:56.172Z,691.88
2018-06-20T08:02:56.217Z,680.63
2018-06-20T08:03:56.226Z,635.63
2018-06-20T08:04:56.256Z,613.13
2018-06-20T08:05:56.281Z,596.25
2018-06-20T08:06:56.316Z,585.00
2018-06-20T08:07:56.335Z,641.25
2018-06-20T08:08:56.364Z,663.75
2018-06-20T08:09:56.390Z,663.75
2018-06-20T08:10:56.444Z,663.75
2018-06-20T08:11:56.451Z,686.25
2018-06-20T08:12:56.474Z,708.75
2018-06-20T08:13:56.503Z,708.75
2018-06-20T08:14:56.529Z,725.63
2018-06-20T08:15:56.558Z,753.75
2018-06-20T08:16:56.585Z,765.00
2018-06-20T08:17:56.611Z,793.13
2018-06-20T08:18:56.711Z,787.50
2018-06-20T08:19:56.665Z,765.00
2018-06-20T08:20:56.689Z,753.75
2018-06-20T08:21:56.724Z,742.50
2018-06-20T08:22:56.745Z,736.88
2018-06-20T08:23:56.775Z,770.63
2018-06-20T08:24:56.806Z,663.75
2018-06-20T08:25:56.850Z,652.50
2018-06-20T08:26:56.862Z,680.63
2018-06-20T08:27:56.892Z,686.25
2018-06-20T08:28:56.914Z,708.75
2018-06-20T08:29:56.940Z,691.88
2018-06-20T08:30:56.969Z,691.88
2018-06-20T08:31:56.999Z,680.63
2018-06-20T08:32:57.034Z,675.00
2018-06-20T08:33:57.055Z,697.50
2018-06-20T08:34:57.082Z,703.13
2018-06-20T08:35:57.108Z,714.38
2018-06-20T08:36:57.138Z,725.63
2018-06-20T08:37:57.172Z,736.88
2018-06-20T08:38:57.194Z,720.00
2018-06-20T08:39:57.226Z,697.50
2018-06-20T08:40:57.256Z,708.75
2018-06-20T08:41:57.277Z,725.63
2018-06-20T08:42:57.311Z,691.88
2018-06-20T08:43:57.329Z,675.00
2018-06-20T08:44:57.364Z,669.38
2018-06-20T08:45:57.395Z,686.25
2018-06-20T08:46:57.419Z,697.50
2018-06-20T08:47:57.445Z,714.38
2018-06-20T08:48:57.472Z,748.13
2018-06-20T08:49:57.498Z,753.75
2018-06-20T08:50:57.530Z,720.00
2018-06-20T08:51:57.555Z,703.13
2018-06-20T08:52:57.626Z,708.75
2018-06-20T08:53:57.612Z,765.00
2018-06-20T08:54:57.641Z,815.63
2018-06-20T08:55:57.677Z,855.00
2018-06-20T08:56:57.699Z,871.88
2018-06-20T08:57:57.721Z,826.88
2018-06-20T08:58:57.751Z,787.50
2018-06-20T08:59:57.776Z,770.63
2018-06-20T09:00:57.815Z,770.63
2018-06-20T09:01:57.832Z,759.38
2018-06-20T09:02:57.863Z,720.00
2018-06-20T09:03:57.892Z,714.38
2018-06-20T09:04:57.923Z,697.50
2018-06-20T09:05:57.947Z,708.75
2018-06-20T09:06:57.975Z,714.38
2018-06-20T09:07:58.002Z,686.25
2018-06-20T09:08:58.030Z,630.00
2018-06-20T09:09:58.062Z,624.38
2018-06-20T09:10:58.091Z,652.50
2018-06-20T09:11:58.116Z,691.88
2018-06-20T09:12:58.144Z,736.88
2018-06-20T09:13:58.168Z,770.63
2018-06-20T09:14:58.197Z,793.13
2018-06-20T09:15:58.224Z,787.50
2018-06-20T09:16:58.252Z,765.00
2018-06-20T09:17:58.285Z,759.38
2018-06-20T09:18:58.306Z,748.13
2018-06-20T09:19:58.344Z,742.50
2018-06-20T09:20:58.362Z,725.63
2018-06-20T09:21:58.447Z,731.25
2018-06-20T09:22:58.424Z,731.25
2018-06-20T09:23:58.455Z,759.38
2018-06-20T09:24:58.476Z,787.50
2018-06-20T09:25:58.506Z,821.25
2018-06-20T09:26:58.532Z,843.75
2018-06-20T09:27:58.561Z,871.88
2018-06-20T09:28:58.586Z,888.75
2018-06-20T09:29:58.654Z,883.13
2018-06-20T09:30:58.650Z,849.38
2018-06-20T09:31:58.676Z,860.63
2018-06-20T09:32:58.702Z,849.38
2018-06-20T09:33:58.729Z,826.88
2018-06-20T09:34:58.756Z,787.50
2018-06-20T09:35:58.789Z,770.63
2018-06-20T09:36:58.810Z,748.13
2018-06-20T09:37:58.842Z,765.00
2018-06-20T09:38:58.871Z,804.38
2018-06-20T09:39:58.904Z,826.88
2018-06-20T09:40:58.925Z,838.13
2018-06-20T09:41:58.955Z,838.13
2018-06-20T09:42:58.980Z,826.88
2018-06-20T09:43:59.014Z,832.50
2018-06-20T09:44:59.044Z,810.00
2018-06-20T09:45:59.071Z,787.50
2018-06-20T09:46:59.108Z,753.75
2018-06-20T09:47:59.126Z,720.00
2018-06-20T09:48:59.154Z,669.38
2018-06-20T09:49:59.181Z,663.75
2018-06-20T09:50:59.217Z,686.25
2018-06-20T09:51:59.245Z,708.75
2018-06-20T09:52:59.273Z,714.38
2018-06-20T09:53:59.296Z,742.50
2018-06-20T09:54:59.325Z,804.38
2018-06-20T09:55:59.347Z,787.50
2018-06-20T09:56:59.380Z,810.00
2018-06-20T09:57:59.462Z,888.75
2018-06-20T09:58:59.444Z,888.75
2018-06-20T09:59:59.466Z,922.50
2018-06-20T10:00:59.489Z,905.63
2018-06-20T10:01:59.527Z,939.38
2018-06-20T10:02:59.550Z,922.50
2018-06-20T10:03:59.583Z,922.50
2018-06-20T10:04:59.605Z,877.50
2018-06-20T10:05:59.631Z,855.00
2018-06-20T10:06:59.660Z,843.75
2018-06-20T10:07:59.692Z,843.75
2018-06-20T10:08:59.720Z,866.25
2018-06-20T10:09:59.744Z,843.75
2018-06-20T10:10:59.779Z,905.63
2018-06-20T10:11:59.808Z,888.75
2018-06-20T10:12:59.836Z,810.00
2018-06-20T10:13:59.861Z,866.25
2018-06-20T10:14:59.895Z,821.25
2018-06-20T10:15:59.921Z,838.13
2018-06-20T10:16:59.945Z,843.75
2018-06-20T10:17:59.969Z,911.25
2018-06-20T10:18:59.999Z,928.13
2018-06-20T10:20:00.035Z,1001.25
2018-06-20T10:21:00.121Z,1063.13
2018-06-20T10:22:00.097Z,1074.38
2018-06-20T10:23:00.114Z,1147.50
2018-06-20T10:24:00.143Z,1170.00
2018-06-20T10:25:00.169Z,1293.75
2018-06-20T10:26:00.202Z,1282.50
2018-06-20T10:27:00.229Z,1192.50
2018-06-20T10:28:00.253Z,1158.75
2018-06-20T10:29:00.283Z,1153.13
2018-06-20T10:30:00.313Z,1125.00
2018-06-20T10:31:00.343Z,1125.00
2018-06-20T10:32:00.379Z,961.88
2018-06-20T10:33:00.403Z,900.00
2018-06-20T10:34:00.429Z,776.25
2018-06-20T10:35:00.465Z,860.63
2018-06-20T10:36:00.488Z,978.75
2018-06-20T10:37:00.518Z,1226.25
2018-06-20T10:38:00.546Z,1243.13
2018-06-20T10:39:00.582Z,1192.50
2018-06-20T10:40:00.631Z,1136.25
2018-06-20T10:41:00.628Z,1265.63
2018-06-20T10:42:00.662Z,1231.88
2018-06-20T10:43:00.689Z,1271.25
2018-06-20T10:44:00.717Z,1276.88
2018-06-20T10:45:00.752Z,1209.38
2018-06-20T10:46:00.856Z,1136.25
2018-06-20T10:47:00.812Z,1096.88
2018-06-20T10:48:00.833Z,1119.38
2018-06-20T10:49:00.862Z,1186.88
2018-06-20T10:50:00.892Z,1192.50
2018-06-20T10:51:00.928Z,1170.00
2018-06-20T10:52:00.948Z,1231.88
2018-06-20T10:53:00.983Z,1299.38
2018-06-20T10:54:01.011Z,1158.75
2018-06-20T10:55:01.037Z,1125.00
2018-06-20T10:56:01.068Z,1276.88
2018-06-20T10:57:01.097Z,1321.88
2018-06-20T10:58:01.127Z,1406.25
2018-06-20T10:59:01.153Z,1496.25
2018-06-20T11:00:01.185Z,1558.13
2018-06-20T11:01:01.219Z,1670.63
2018-06-20T11:02:01.243Z,1316.25
2018-06-20T11:03:01.272Z,1580.63
2018-06-20T11:04:01.300Z,1108.13
2018-06-20T11:05:01.332Z,1153.13
2018-06-20T11:06:01.365Z,1158.75
2018-06-20T11:07:01.457Z,2913.75
2018-06-20T11:08:01.424Z,3037.50
2018-06-20T11:09:01.457Z,1783.13
2018-06-20T11:10:01.478Z,3088.13
2018-06-20T11:11:01.513Z,2536.88
2018-06-20T11:12:01.539Z,1726.88
2018-06-20T11:13:01.575Z,2947.50
2018-06-20T11:14:01.600Z,1766.25
2018-06-20T11:15:01.628Z,2098.13
2018-06-20T11:16:01.679Z,2615.63
2018-06-20T11:17:01.691Z,2120.63
2018-06-20T11:18:01.725Z,1220.63
2018-06-20T11:19:01.754Z,1428.75
2018-06-20T11:20:01.785Z,3240.00
2018-06-20T11:21:01.818Z,3397.50
2018-06-20T11:22:01.844Z,3386.25
2018-06-20T11:23:01.880Z,3442.50
2018-06-20T11:24:01.905Z,3223.13
2018-06-20T11:25:01.948Z,3493.13
2018-06-20T11:26:01.972Z,3549.38
2018-06-20T11:27:02.005Z,3459.38
2018-06-20T11:28:02.042Z,3706.88
2018-06-20T11:29:02.076Z,3403.13
2018-06-20T11:30:02.108Z,1153.13
2018-06-20T11:31:02.198Z,1231.88
2018-06-20T11:32:02.176Z,1417.50
2018-06-20T11:33:02.201Z,3431.25
2018-06-20T11:34:02.236Z,3718.13
2018-06-20T11:35:02.269Z,1890.00
2018-06-20T11:36:02.298Z,2446.88
2018-06-20T11:37:02.330Z,1726.88
2018-06-20T11:38:02.372Z,2610.00
2018-06-20T11:39:02.404Z,3301.88
2018-06-20T11:40:02.434Z,3616.88
2018-06-20T11:41:02.465Z,2362.50
2018-06-20T11:42:02.498Z,1271.25
2018-06-20T11:43:02.536Z,1333.13
2018-06-20T11:44:02.569Z,2295.00
2018-06-20T11:45:02.599Z,3802.50
2018-06-20T11:46:02.629Z,3611.25
2018-06-20T11:47:02.667Z,2818.13
2018-06-20T11:48:02.700Z,3847.50
2018-06-20T11:49:02.737Z,4055.63
2018-06-20T11:50:02.763Z,3915.00
2018-06-20T11:51:02.805Z,3926.25
2018-06-20T11:52:02.836Z,3971.25
2018-06-20T11:53:02.887Z,3954.38
2018-06-20T11:54:02.901Z,4100.63
2018-06-20T11:55:02.971Z,4117.50
2018-06-20T11:56:02.985Z,3931.88
2018-06-20T11:57:03.010Z,4005.00
2018-06-20T11:58:03.061Z,1456.88
2018-06-20T11:59:03.094Z,1040.63
2018-06-20T12:00:03.119Z,990.00
2018-06-20T12:01:03.154Z,1051.88
2018-06-20T12:02:03.189Z,1170.00
2018-06-20T12:03:03.220Z,1186.88
2018-06-20T12:04:03.271Z,1226.25
2018-06-20T12:05:03.290Z,1338.75
2018-06-20T12:06:03.324Z,1366.88
2018-06-20T12:07:03.362Z,2722.50
2018-06-20T12:08:03.392Z,2356.88
2018-06-20T12:09:03.425Z,1170.00
2018-06-20T12:10:03.458Z,1125.00
2018-06-20T12:11:03.491Z,1276.88
2018-06-20T12:12:03.526Z,1080.00
2018-06-20T12:13:03.554Z,973.13
2018-06-20T12:14:03.592Z,939.38
2018-06-20T12:15:03.627Z,995.63
2018-06-20T12:16:03.654Z,1220.63
2018-06-20T12:17:03.688Z,1575.00
2018-06-20T12:18:03.718Z,3960.00
2018-06-20T12:19:03.754Z,4128.75
2018-06-20T12:20:03.795Z,4303.13
2018-06-20T12:21:03.823Z,1271.25
2018-06-20T12:22:03.904Z,1125.00
2018-06-20T12:23:03.880Z,1220.63
2018-06-20T12:24:03.913Z,2131.88
2018-06-20T12:25:03.948Z,2655.00
2018-06-20T12:26:03.978Z,4595.63
2018-06-20T12:27:04.013Z,4623.75
2018-06-20T12:28:04.046Z,4680.00
2018-06-20T12:29:04.074Z,4556.25
2018-06-20T12:30:04.111Z,4522.50
2018-06-20T12:31:04.140Z,4196.25
2018-06-20T12:32:04.174Z,1299.38
2018-06-20T12:33:04.218Z,3121.88
2018-06-20T12:34:04.247Z,1243.13
2018-06-20T12:35:04.273Z,1400.63
2018-06-20T12:36:04.321Z,2823.75
2018-06-20T12:37:04.343Z,2362.50